aviador You're here:

LFBM Decoded Metar

MONT-DE-MARSAN in FRANCE
Report Time2017-10-20 12:00:00
UTC Time2017-10-20 12:32:56
Flight Rules vfr VFR
Wind150° at 03 kt
W.Decomp.*RWY 09: 1.5 kt HW 2.6 kt RCW
W.Rank150° ranks 28
Current wind is below 150° avg. (4.2)
Visibility9999 m
Phenomena:N/A
Clouds:N/A
Expected CloudBase > 2,000 ft AGL from Temp-Dew spread
CeilingNone
Temp20°C (ISA +5)
Dew Point15°C (73% RH)
QNH1018 hPa
Density Alt899 ft
Elevation207 ft
Report Wrong Elevation
Raw Report
LFBM 201200Z AUTO 15003KT 110V170 9999 ////// 20/15 Q1018=

Extra information for LFBM:More info

Metar Taf Metar & Taf Last 4 Metars F.Rules Stats Wind Profile Meteogram Temp Stats Airport Information Weather charts Add Link Nearby VenuesMetar ALERT Operation Metar Decoded Social comments